Time;durP1;ratioP1;P1;durP2;ratioP2;P2;SDS_P1;SDS_P2;PMS_P1;PMS_P2;Temp;Humidity;BMP_temperature;BMP_pressure;BME280_temperature;BME280_humidity;BME280_pressure;Samples;Min_cycle;Max_cycle;Signal;HPM_P1;HPM_P2
2023/06/25 00:01:22;;;;;;;3.03;1.80;;;;;;;26.69;39.23;96414.81;5041647;28;20025;-26
2023/06/25 00:03:48;;;;;;;2.92;1.70;;;;;;;26.90;38.72;96411.38;5035443;28;20021;-26
2023/06/25 00:06:13;;;;;;;4.13;1.63;;;;;;;26.75;39.02;96409.88;5034570;28;20025;-27
2023/06/25 00:08:39;;;;;;;3.75;1.40;;;;;;;26.74;39.25;96413.19;5034741;28;20021;-28
2023/06/25 00:11:04;;;;;;;2.17;1.58;;;;;;;26.67;39.17;96422.94;5034668;28;20009;-26
2023/06/25 00:13:30;;;;;;;4.32;2.25;;;;;;;26.75;38.93;96412.66;5034499;28;20120;-27
2023/06/25 00:15:55;;;;;;;5.00;2.22;;;;;;;26.68;39.48;96412.53;5034401;28;20032;-27
2023/06/25 00:18:21;;;;;;;2.53;2.05;;;;;;;26.72;39.14;96421.31;5034529;28;20028;-27
2023/06/25 00:20:46;;;;;;;4.80;1.60;;;;;;;26.73;39.13;96420.03;5034307;28;20118;-26
2023/06/25 00:23:13;;;;;;;3.20;2.00;;;;;;;26.60;40.08;96423.53;5034200;28;20055;-27
2023/06/25 00:25:38;;;;;;;4.47;1.70;;;;;;;26.80;39.13;96411.81;5034465;28;20025;-27
2023/06/25 00:28:08;;;;;;;2.85;1.70;;;;;;;26.58;39.59;96414.97;5034421;28;20378;-27
2023/06/25 00:30:34;;;;;;;1.88;1.67;;;;;;;26.59;39.94;96410.91;5048253;28;20021;-28
2023/06/25 00:33:00;;;;;;;2.40;1.73;;;;;;;26.63;39.62;96421.72;5036637;28;20049;-26
2023/06/25 00:35:58;;;;;;;2.38;1.70;;;;;;;26.51;40.10;96412.84;5040953;28;20052;-27
2023/06/25 00:38:24;;;;;;;2.75;1.60;;;;;;;26.49;39.84;96412.63;5034442;28;20056;-27
2023/06/25 00:40:50;;;;;;;2.92;1.70;;;;;;;26.64;39.91;96412.88;5033653;28;20069;-27
2023/06/25 00:43:16;;;;;;;2.85;1.70;;;;;;;26.70;39.67;96407.97;5034187;28;20423;-27
2023/06/25 00:45:45;;;;;;;3.63;1.55;;;;;;;26.55;40.51;96409.75;5034067;28;20111;-29
2023/06/25 00:48:10;;;;;;;2.78;1.52;;;;;;;26.53;39.92;96401.94;5041497;28;20028;-26
2023/06/25 00:50:36;;;;;;;3.13;1.75;;;;;;;26.56;40.39;96412.00;5034264;28;20099;-27
2023/06/25 00:53:02;;;;;;;2.05;1.75;;;;;;;26.60;40.51;96403.31;5034271;28;20037;-27
2023/06/25 00:55:28;;;;;;;4.88;1.80;;;;;;;26.61;40.05;96402.78;5033335;28;20025;-27
2023/06/25 00:57:55;;;;;;;5.50;1.70;;;;;;;26.46;40.92;96397.75;5033714;28;20440;-26
2023/06/25 01:00:24;;;;;;;3.95;1.70;;;;;;;26.30;40.94;96398.81;5033716;28;20422;-26
2023/06/25 01:03:05;;;;;;;2.22;1.80;;;;;;;26.36;41.16;96398.72;5034031;28;20052;-28
2023/06/25 01:05:46;;;;;;;2.67;1.70;;;;;;;26.27;41.33;96396.31;5033632;28;20109;-27
2023/06/25 01:08:16;;;;;;;2.65;1.58;;;;;;;26.44;41.42;96396.81;5033335;28;20045;-26
2023/06/25 01:10:43;;;;;;;4.43;1.67;;;;;;;26.43;41.61;96409.97;5033610;28;20468;-27
2023/06/25 01:13:09;;;;;;;1.90;1.38;;;;;;;26.42;41.74;96402.91;5038972;28;20116;-26
2023/06/25 01:15:35;;;;;;;2.78;1.90;;;;;;;26.47;41.20;96398.50;5033481;28;20116;-27
2023/06/25 01:18:01;;;;;;;3.95;1.73;;;;;;;26.40;41.89;96405.47;5046853;28;20682;-26
2023/06/25 01:20:27;;;;;;;4.22;1.70;;;;;;;26.62;41.64;96414.66;5033696;28;20033;-27
2023/06/25 01:22:54;;;;;;;2.60;1.58;;;;;;;26.70;41.27;96407.22;5033773;28;20061;-27
2023/06/25 01:25:20;;;;;;;3.13;1.70;;;;;;;26.36;41.95;96404.28;5033325;28;20071;-26
2023/06/25 01:27:46;;;;;;;2.67;1.77;;;;;;;26.41;41.77;96398.63;5041304;28;20025;-26
2023/06/25 01:30:14;;;;;;;4.78;1.60;;;;;;;26.44;41.67;96399.59;5033412;28;20037;-26
2023/06/25 01:32:41;;;;;;;2.60;2.00;;;;;;;26.44;41.63;96397.56;5033143;28;20430;-27
2023/06/25 01:35:11;;;;;;;2.05;1.70;;;;;;;26.58;41.51;96397.56;5033447;28;20088;-27
2023/06/25 01:37:37;;;;;;;2.83;1.98;;;;;;;26.51;42.01;96393.38;5033258;28;20025;-28
2023/06/25 01:40:03;;;;;;;2.80;1.75;;;;;;;26.44;41.62;96399.59;5040125;28;20041;-26
2023/06/25 01:42:28;;;;;;;4.18;1.98;;;;;;;26.47;42.02;96399.25;5033119;28;20057;-28
2023/06/25 01:44:54;;;;;;;2.95;1.60;;;;;;;26.42;42.21;96391.03;5033459;28;20052;-26
2023/06/25 01:47:19;;;;;;;2.70;1.70;;;;;;;26.32;42.28;96401.06;5033145;28;20064;-26
2023/06/25 01:49:44;;;;;;;2.47;1.58;;;;;;;26.38;42.38;96401.72;5033230;28;20018;-26
2023/06/25 01:52:10;;;;;;;4.25;1.67;;;;;;;26.41;42.46;96392.31;5039194;28;20013;-27
2023/06/25 01:54:36;;;;;;;4.00;1.50;;;;;;;26.50;41.95;96391.88;5034019;28;20021;-26
2023/06/25 01:57:02;;;;;;;3.45;1.88;;;;;;;26.45;42.67;96389.97;5033394;28;20056;-27
2023/06/25 01:59:27;;;;;;;2.83;1.55;;;;;;;26.11;43.35;96379.41;5033200;28;20132;-27
2023/06/25 02:01:53;;;;;;;3.08;1.80;;;;;;;26.38;42.85;96385.03;5032910;28;20025;-26
2023/06/25 02:04:19;;;;;;;2.65;1.70;;;;;;;26.32;42.87;96376.06;5032691;28;20017;-27
2023/06/25 02:06:45;;;;;;;2.80;1.70;;;;;;;26.38;42.43;96379.47;5033014;28;20419;-26
2023/06/25 02:09:11;;;;;;;3.60;1.80;;;;;;;26.33;42.98;96374.78;5033311;28;20030;-27
2023/06/25 02:11:36;;;;;;;3.03;1.80;;;;;;;26.39;43.31;96378.94;5033253;28;20040;-26
2023/06/25 02:14:04;;;;;;;4.40;1.90;;;;;;;26.19;43.14;96382.31;5032964;28;20025;-27
2023/06/25 02:16:30;;;;;;;2.90;2.00;;;;;;;26.45;42.71;96378.84;5032896;28;20024;-26
2023/06/25 02:18:55;;;;;;;3.35;1.63;;;;;;;26.43;42.95;96379.38;5034472;28;20379;-27
2023/06/25 02:21:21;;;;;;;4.53;1.58;;;;;;;26.23;43.44;96379.94;5036540;28;20060;-28
2023/06/25 02:23:46;;;;;;;4.05;1.80;;;;;;;26.33;42.93;96372.75;5036535;28;20497;-26
2023/06/25 02:26:12;;;;;;;2.10;1.60;;;;;;;26.28;43.36;96370.06;5036647;28;20091;-27
2023/06/25 02:28:37;;;;;;;3.45;1.60;;;;;;;26.30;43.29;96376.59;5036835;28;20022;-27
2023/06/25 02:31:03;;;;;;;2.72;1.88;;;;;;;26.19;43.54;96376.00;5036508;28;20029;-26
2023/06/25 02:33:28;;;;;;;3.00;1.55;;;;;;;26.13;43.80;96376.84;5039439;28;20082;-27
2023/06/25 02:35:54;;;;;;;3.00;1.90;;;;;;;26.27;43.36;96368.53;5040136;28;20028;-27
2023/06/25 02:38:19;;;;;;;3.47;2.05;;;;;;;26.23;43.67;96370.84;5036399;28;20036;-26
2023/06/25 02:40:44;;;;;;;4.07;1.70;;;;;;;26.23;43.66;96362.53;5036196;28;20088;-26
2023/06/25 02:43:10;;;;;;;4.47;1.83;;;;;;;26.17;43.80;96359.84;5035871;28;20025;-26
2023/06/25 02:45:35;;;;;;;3.67;1.50;;;;;;;26.10;43.76;96364.00;5036440;28;20025;-27
2023/06/25 02:48:01;;;;;;;2.60;1.85;;;;;;;26.11;43.50;96364.75;5036108;28;20024;-26
2023/06/25 02:50:26;;;;;;;2.28;1.90;;;;;;;26.06;43.79;96363.56;5036436;28;20467;-28
2023/06/25 02:52:52;;;;;;;2.65;1.75;;;;;;;26.17;43.83;96370.97;5036426;28;20063;-26
2023/06/25 02:55:17;;;;;;;2.20;1.70;;;;;;;26.16;43.88;96375.03;5036113;28;20029;-26
2023/06/25 02:57:43;;;;;;;3.65;1.90;;;;;;;26.04;44.46;96388.38;5043273;28;20020;-26
2023/06/25 03:00:08;;;;;;;2.40;1.40;;;;;;;26.06;44.00;96377.47;5035989;28;20013;-29
2023/06/25 03:02:34;;;;;;;3.97;1.73;;;;;;;26.20;44.22;96385.84;5035864;28;20021;-26
2023/06/25 03:04:59;;;;;;;3.78;1.40;;;;;;;26.00;44.60;96390.69;5039647;28;20114;-26
2023/06/25 03:07:25;;;;;;;3.85;1.70;;;;;;;26.12;44.10;96377.38;5039668;28;20017;-26
2023/06/25 03:09:50;;;;;;;3.78;1.80;;;;;;;26.17;44.45;96379.31;5035977;28;20028;-26
2023/06/25 03:12:16;;;;;;;4.18;1.80;;;;;;;26.26;43.74;96383.69;5035326;28;20081;-26
2023/06/25 03:14:41;;;;;;;4.00;2.08;;;;;;;26.25;44.58;96380.16;5036137;28;20033;-27
2023/06/25 03:17:07;;;;;;;2.50;1.42;;;;;;;26.28;44.39;96386.72;5035798;28;20048;-26
2023/06/25 03:19:33;;;;;;;4.32;1.80;;;;;;;26.13;44.29;96376.84;5042643;28;20109;-27
2023/06/25 03:21:59;;;;;;;4.50;1.80;;;;;;;26.04;44.82;96374.47;5035255;28;20021;-27
2023/06/25 03:24:25;;;;;;;3.67;1.50;;;;;;;26.14;44.64;96372.03;5035472;28;20018;-26
2023/06/25 03:26:51;;;;;;;3.65;2.08;;;;;;;26.11;44.60;96379.41;5035753;28;20099;-26
2023/06/25 03:29:16;;;;;;;5.70;1.90;;;;;;;26.03;44.63;96386.88;5043247;28;20013;-26
2023/06/25 03:31:42;;;;;;;3.83;1.60;;;;;;;25.95;45.01;96382.47;5035582;28;20017;-26
2023/06/25 03:34:07;;;;;;;2.92;1.60;;;;;;;25.98;45.33;96390.47;5036216;28;20041;-26
2023/06/25 03:36:33;;;;;;;3.53;1.73;;;;;;;26.05;45.00;96392.66;5035445;28;20037;-27
2023/06/25 03:38:58;;;;;;;3.92;1.50;;;;;;;26.02;45.39;96398.50;5035420;28;20029;-26
2023/06/25 03:41:24;;;;;;;2.97;1.65;;;;;;;26.15;44.77;96395.00;5034578;28;20057;-26
2023/06/25 03:43:50;;;;;;;3.63;1.60;;;;;;;26.10;45.20;96407.72;5035497;28;20032;-26
2023/06/25 03:46:16;;;;;;;5.75;2.05;;;;;;;26.12;44.94;96417.03;5042118;28;20025;-27
2023/06/25 03:48:43;;;;;;;3.55;1.80;;;;;;;26.15;44.87;96418.00;5035520;28;20021;-26
2023/06/25 03:51:09;;;;;;;4.00;1.70;;;;;;;26.11;45.09;96428.66;5035089;28;20017;-27
2023/06/25 03:53:34;;;;;;;2.83;1.75;;;;;;;26.01;45.60;96442.22;5035437;28;20040;-27
2023/06/25 03:56:00;;;;;;;4.05;2.05;;;;;;;25.96;45.81;96445.09;5034989;28;20017;-26
2023/06/25 03:58:25;;;;;;;3.88;1.83;;;;;;;26.18;45.35;96441.22;5034647;28;20340;-27
2023/06/25 04:00:51;;;;;;;4.47;1.60;;;;;;;26.00;45.49;96440.72;5035183;28;20076;-26
2023/06/25 04:03:16;;;;;;;2.00;1.60;;;;;;;25.97;45.53;96435.47;5041810;28;20025;-27
2023/06/25 04:05:45;;;;;;;2.47;1.60;;;;;;;26.18;45.37;96436.41;5035133;28;20075;-26
2023/06/25 04:08:11;;;;;;;4.47;1.80;;;;;;;26.13;45.57;96432.44;5034791;28;20100;-27
2023/06/25 04:10:38;;;;;;;4.25;1.65;;;;;;;26.00;45.73;96435.16;5034341;28;20109;-26
2023/06/25 04:13:03;;;;;;;3.95;1.63;;;;;;;26.01;45.75;96436.66;5041736;28;20026;-27
2023/06/25 04:15:29;;;;;;;3.83;1.67;;;;;;;26.15;45.52;96426.34;5040445;28;20023;-26
2023/06/25 04:17:54;;;;;;;3.25;1.35;;;;;;;26.12;45.20;96433.69;5035815;28;20104;-26
2023/06/25 04:20:20;;;;;;;4.30;1.60;;;;;;;26.00;45.62;96426.81;5034515;28;20028;-26
2023/06/25 04:22:45;;;;;;;3.28;1.60;;;;;;;25.93;46.30;96413.56;5034359;28;20052;-30
2023/06/25 04:25:10;;;;;;;3.60;1.52;;;;;;;26.00;45.88;96398.28;5034567;28;20060;-26
2023/06/25 04:27:36;;;;;;;4.75;1.70;;;;;;;25.92;46.04;96400.94;5034187;28;20068;-27
2023/06/25 04:30:01;;;;;;;3.20;1.67;;;;;;;25.84;46.09;96400.03;5034357;28;20025;-26
2023/06/25 04:32:27;;;;;;;8.50;1.80;;;;;;;26.00;45.79;96399.03;5034595;28;20028;-26
2023/06/25 04:34:52;;;;;;;4.25;1.90;;;;;;;25.77;46.50;96411.78;5034703;28;20018;-26
2023/06/25 04:37:18;;;;;;;7.43;1.70;;;;;;;26.00;46.01;96401.06;5035985;28;20020;-28
2023/06/25 04:39:43;;;;;;;4.35;1.60;;;;;;;26.13;45.68;96404.63;5039738;28;20018;-27
2023/06/25 04:42:09;;;;;;;2.67;1.30;;;;;;;26.00;45.86;96401.81;5033728;28;20426;-26
2023/06/25 04:44:34;;;;;;;3.17;1.77;;;;;;;26.03;45.83;96403.53;5033972;28;20492;-26
2023/06/25 04:46:59;;;;;;;2.80;1.30;;;;;;;26.09;45.80;96403.44;5034000;28;20017;-26
2023/06/25 04:49:25;;;;;;;4.05;1.50;;;;;;;26.12;45.84;96414.25;5034636;28;20021;-27
2023/06/25 04:51:50;;;;;;;4.28;1.65;;;;;;;25.91;46.51;96409.81;5034038;28;20270;-27
2023/06/25 04:54:16;;;;;;;2.20;1.40;;;;;;;26.05;46.24;96408.56;5033783;28;20025;-27
2023/06/25 04:56:41;;;;;;;3.92;1.33;;;;;;;26.18;46.06;96399.50;5033715;28;20024;-27
2023/06/25 04:59:07;;;;;;;2.40;1.50;;;;;;;26.02;46.43;96396.47;5038610;28;20046;-26
2023/06/25 05:01:32;;;;;;;2.85;1.40;;;;;;;26.11;45.94;96395.31;5036157;28;20033;-26
2023/06/25 05:03:58;;;;;;;3.60;1.58;;;;;;;26.11;46.17;96395.31;5034187;28;20086;-26
2023/06/25 05:06:24;;;;;;;4.93;1.50;;;;;;;26.30;45.37;96382.13;5033704;28;20021;-26
2023/06/25 05:08:49;;;;;;;5.15;1.90;;;;;;;26.01;46.09;96392.19;5040873;28;20053;-27
2023/06/25 05:11:15;;;;;;;3.20;1.50;;;;;;;26.10;45.95;96399.38;5033756;28;20556;-26
2023/06/25 05:13:40;;;;;;;4.13;1.70;;;;;;;26.01;46.04;96392.19;5033522;28;20083;-26
2023/06/25 05:16:06;;;;;;;4.65;1.58;;;;;;;25.96;46.32;96409.72;5033571;28;20021;-27
2023/06/25 05:18:31;;;;;;;5.32;1.52;;;;;;;26.11;45.79;96417.56;5033592;28;20056;-26
2023/06/25 05:20:56;;;;;;;2.95;1.55;;;;;;;26.09;46.45;96431.97;5040627;28;20032;-26
2023/06/25 05:23:24;;;;;;;3.72;1.40;;;;;;;26.01;46.52;96425.56;5033443;28;20104;-27
2023/06/25 05:25:49;;;;;;;3.13;1.63;;;;;;;26.20;46.16;96421.97;5033522;28;20037;-26
2023/06/25 05:28:15;;;;;;;3.50;1.52;;;;;;;26.09;46.50;96434.00;5033180;28;20056;-26
2023/06/25 05:30:40;;;;;;;4.82;2.20;;;;;;;26.04;46.37;96432.84;5035277;28;20024;-27
2023/06/25 05:33:06;;;;;;;1.83;1.60;;;;;;;26.15;46.30;96426.34;5035503;28;20018;-27
2023/06/25 05:35:31;;;;;;;3.22;1.30;;;;;;;25.92;46.67;96431.50;5033216;28;20064;-27
2023/06/25 05:37:57;;;;;;;1.45;1.30;;;;;;;26.16;45.84;96425.06;5033496;28;20040;-27
2023/06/25 05:40:27;;;;;;;2.72;1.70;;;;;;;26.12;46.10;96425.38;5033224;28;20413;-27
2023/06/25 05:42:54;;;;;;;2.42;1.40;;;;;;;26.23;46.26;96429.97;5033089;28;20076;-27
2023/06/25 05:45:20;;;;;;;3.90;1.75;;;;;;;26.17;46.20;96418.22;5033225;28;20100;-28
2023/06/25 05:47:45;;;;;;;4.35;1.45;;;;;;;26.37;45.74;96423.19;5032979;28;20030;-26
2023/06/25 05:50:11;;;;;;;3.20;1.73;;;;;;;26.30;45.99;96428.66;5033170;28;20027;-28
2023/06/25 05:52:37;;;;;;;4.45;1.38;;;;;;;26.23;46.37;96423.69;5033209;28;20056;-27
2023/06/25 05:55:02;;;;;;;3.58;1.50;;;;;;;26.36;46.09;96423.72;5036386;28;20128;-27
2023/06/25 05:57:28;;;;;;;4.53;1.70;;;;;;;26.07;46.51;96429.00;5037433;28;20108;-27
2023/06/25 05:59:53;;;;;;;4.38;1.58;;;;;;;26.29;46.20;96427.91;5037109;28;20025;-27
2023/06/25 06:02:19;;;;;;;5.68;1.55;;;;;;;26.27;45.90;96438.03;5037243;28;20089;-27
2023/06/25 06:04:44;;;;;;;5.53;1.55;;;;;;;26.17;46.27;96442.50;5037203;28;20478;-27
2023/06/25 06:07:10;;;;;;;4.28;1.30;;;;;;;26.24;46.11;96448.16;5037024;28;20014;-26
2023/06/25 06:09:35;;;;;;;4.03;1.50;;;;;;;26.19;46.51;96440.69;5036955;28;20040;-27
2023/06/25 06:12:01;;;;;;;2.20;1.30;;;;;;;26.30;45.99;96445.34;5036882;28;20409;-28
2023/06/25 06:14:26;;;;;;;2.70;1.25;;;;;;;26.40;45.84;96432.50;5036690;28;20029;-27
2023/06/25 06:16:52;;;;;;;7.07;2.20;;;;;;;26.52;45.76;96433.81;5036647;28;20067;-26
2023/06/25 06:19:17;;;;;;;3.83;1.50;;;;;;;26.29;45.99;96433.47;5035227;28;20022;-26
2023/06/25 06:21:43;;;;;;;2.22;1.50;;;;;;;26.32;46.11;96448.34;5036544;28;20025;-28
2023/06/25 06:24:08;;;;;;;4.65;1.42;;;;;;;26.17;46.48;96448.06;5036681;28;20025;-27
2023/06/25 06:26:35;;;;;;;2.35;1.38;;;;;;;26.35;46.22;96450.03;5043476;28;20022;-27
2023/06/25 06:29:03;;;;;;;3.80;1.55;;;;;;;26.24;46.22;96450.19;5044402;28;20033;-27
2023/06/25 06:31:30;;;;;;;3.08;1.45;;;;;;;26.35;46.11;96447.25;5036372;28;20033;-26
2023/06/25 06:33:56;;;;;;;2.80;1.27;;;;;;;26.42;45.80;96436.28;5046252;28;20028;-27
2023/06/25 06:36:21;;;;;;;5.10;1.50;;;;;;;26.29;46.06;96444.59;5039316;28;20397;-26
2023/06/25 06:38:47;;;;;;;3.25;1.40;;;;;;;26.49;45.42;96443.22;5041454;28;20033;-26
2023/06/25 06:41:12;;;;;;;4.85;1.63;;;;;;;26.44;45.62;96444.09;5038403;28;20048;-25
2023/06/25 06:43:37;;;;;;;3.97;1.40;;;;;;;26.56;45.84;96439.06;5036099;28;20029;-27
2023/06/25 06:46:03;;;;;;;2.25;1.40;;;;;;;26.54;45.48;96447.94;5036638;28;20055;-26
2023/06/25 06:48:28;;;;;;;2.67;1.23;;;;;;;26.31;45.85;96441.28;5036065;28;20025;-26
2023/06/25 06:50:54;;;;;;;4.72;1.67;;;;;;;26.45;46.00;96440.03;5036040;28;20014;-26
2023/06/25 06:53:19;;;;;;;4.43;1.80;;;;;;;26.44;45.66;96444.84;5036632;28;20070;-26
2023/06/25 06:55:44;;;;;;;2.33;1.50;;;;;;;26.41;45.79;96442.38;5043344;28;20384;-26
2023/06/25 06:58:10;;;;;;;2.85;1.55;;;;;;;26.54;45.81;96442.38;5036127;28;20455;-26
2023/06/25 07:00:35;;;;;;;5.70;1.67;;;;;;;26.57;45.62;96446.88;5036160;28;20521;-26
2023/06/25 07:03:01;;;;;;;2.55;1.63;;;;;;;26.53;45.76;96446.44;5042261;28;20461;-26
2023/06/25 07:05:26;;;;;;;6.05;1.85;;;;;;;26.58;45.54;96451.13;5035214;28;20029;-27
2023/06/25 07:07:52;;;;;;;4.20;1.88;;;;;;;26.35;46.11;96458.38;5035556;28;20020;-26
2023/06/25 07:10:17;;;;;;;5.30;1.73;;;;;;;26.66;45.29;96451.28;5035700;28;20014;-26
2023/06/25 07:12:43;;;;;;;3.20;1.35;;;;;;;26.55;45.73;96455.00;5035951;28;20087;-27
2023/06/25 07:15:08;;;;;;;4.22;1.35;;;;;;;26.55;45.54;96455.00;5036474;28;20377;-25
2023/06/25 07:17:34;;;;;;;7.47;1.88;;;;;;;26.57;45.73;96446.13;5035782;28;20462;-28
2023/06/25 07:19:59;;;;;;;6.07;1.70;;;;;;;26.46;45.76;96447.81;5035583;28;20026;-26
2023/06/25 07:22:25;;;;;;;4.47;1.50;;;;;;;26.52;45.51;96441.41;5035859;28;20025;-26
2023/06/25 07:24:50;;;;;;;3.75;1.60;;;;;;;26.57;45.33;96448.91;5035616;28;20030;-26
2023/06/25 07:27:15;;;;;;;4.88;1.60;;;;;;;26.50;45.82;96441.94;5035157;28;20037;-27
2023/06/25 07:29:41;;;;;;;3.28;1.50;;;;;;;26.58;45.37;96442.78;5035393;28;20029;-26
2023/06/25 07:32:07;;;;;;;3.13;1.42;;;;;;;26.45;45.68;96440.78;5042565;28;20029;-26
2023/06/25 07:34:32;;;;;;;4.45;1.35;;;;;;;26.57;45.87;96432.97;5040465;28;20527;-26
2023/06/25 07:36:58;;;;;;;5.20;1.60;;;;;;;26.71;45.62;96434.47;5038680;28;20021;-27
2023/06/25 07:39:29;;;;;;;2.83;1.38;;;;;;;26.74;45.68;96433.41;5035227;28;20028;-26
2023/06/25 07:41:56;;;;;;;3.63;1.52;;;;;;;26.81;45.46;96434.81;5035121;28;20045;-26
2023/06/25 07:44:22;;;;;;;4.20;1.52;;;;;;;26.83;45.22;96438.53;5035380;28;20037;-25
2023/06/25 07:46:48;;;;;;;5.80;2.25;;;;;;;26.73;45.52;96437.47;5034850;28;20017;-26
2023/06/25 07:49:14;;;;;;;3.45;1.40;;;;;;;26.87;45.58;96434.69;5034729;28;20036;-26
2023/06/25 07:51:40;;;;;;;2.50;1.50;;;;;;;26.82;45.31;96439.09;5035433;28;20017;-26
2023/06/25 07:54:06;;;;;;;2.60;1.50;;;;;;;26.95;45.58;96432.81;5034914;28;20530;-26
2023/06/25 07:56:31;;;;;;;3.85;1.60;;;;;;;26.75;45.63;96429.34;5034985;28;20124;-26
2023/06/25 07:58:56;;;;;;;3.25;1.40;;;;;;;26.81;45.77;96432.03;5035095;28;20096;-26
2023/06/25 08:01:22;;;;;;;4.47;1.42;;;;;;;26.90;45.57;96428.06;5034886;28;20048;-26
2023/06/25 08:03:47;;;;;;;4.53;1.58;;;;;;;26.94;45.31;96423.72;5035203;28;20150;-26
2023/06/25 08:06:13;;;;;;;5.28;1.80;;;;;;;26.80;45.44;96436.84;5034575;28;20017;-26
2023/06/25 08:08:39;;;;;;;4.25;2.15;;;;;;;26.99;45.12;96430.44;5034598;28;20097;-26
2023/06/25 08:11:05;;;;;;;4.45;1.80;;;;;;;27.12;44.59;96427.63;5034807;28;20506;-26
2023/06/25 08:13:30;;;;;;;6.28;1.60;;;;;;;27.07;44.87;96437.63;5034798;28;20013;-26
2023/06/25 08:15:55;;;;;;;4.47;1.48;;;;;;;27.21;44.87;96435.53;5034566;28;20036;-26
2023/06/25 08:18:21;;;;;;;4.22;1.55;;;;;;;27.22;44.55;96437.03;5034655;28;20467;-26
2023/06/25 08:20:46;;;;;;;3.78;1.60;;;;;;;27.17;44.85;96441.44;5034815;28;20076;-26
2023/06/25 08:23:12;;;;;;;2.30;1.50;;;;;;;27.14;44.78;96436.94;5041653;28;20163;-26
2023/06/25 08:25:38;;;;;;;3.42;1.50;;;;;;;27.12;44.59;96445.09;5033908;28;20037;-26
2023/06/25 08:28:03;;;;;;;4.68;1.58;;;;;;;27.05;44.77;96447.78;5034369;28;20037;-26
2023/06/25 08:30:29;;;;;;;5.45;1.75;;;;;;;27.17;44.82;96435.88;5041621;28;20079;-27
2023/06/25 08:32:54;;;;;;;2.22;1.40;;;;;;;27.32;44.28;96446.47;5034497;28;20108;-26
2023/06/25 08:35:20;;;;;;;4.03;1.80;;;;;;;27.16;44.48;96439.19;5036558;28;20099;-27
2023/06/25 08:37:45;;;;;;;3.35;1.52;;;;;;;27.32;44.53;96446.47;5039309;28;20356;-26
2023/06/25 08:40:12;;;;;;;6.20;1.98;;;;;;;27.31;44.66;96450.53;5033863;28;20052;-26
2023/06/25 08:42:37;;;;;;;5.22;1.90;;;;;;;27.26;44.82;96437.47;5033802;28;20013;-26
2023/06/25 08:45:03;;;;;;;3.25;1.90;;;;;;;27.26;44.51;96439.50;5034086;28;20429;-26
2023/06/25 08:47:32;;;;;;;5.72;1.80;;;;;;;27.28;44.73;96446.03;5034063;28;20068;-26
2023/06/25 08:49:59;;;;;;;3.67;2.20;;;;;;;27.26;44.67;96448.59;5034199;28;20029;-26
2023/06/25 08:52:24;;;;;;;2.17;1.73;;;;;;;27.28;44.83;96439.72;5041487;28;20025;-26
2023/06/25 08:54:50;;;;;;;3.60;1.70;;;;;;;27.39;44.65;96440.22;5034035;28;20025;-26
2023/06/25 08:57:17;;;;;;;2.28;1.50;;;;;;;27.35;44.66;96441.84;5034159;28;20017;-26
2023/06/25 08:59:42;;;;;;;2.47;1.65;;;;;;;27.38;44.44;96433.16;5042619;28;20033;-26
2023/06/25 09:02:09;;;;;;;5.95;1.70;;;;;;;27.41;44.71;96439.69;5033737;28;20017;-26
2023/06/25 09:04:36;;;;;;;2.97;1.58;;;;;;;27.31;44.36;96436.63;5034039;28;20513;-26
2023/06/25 09:07:08;;;;;;;4.68;1.50;;;;;;;27.34;44.71;96445.91;5033777;28;20071;-26
2023/06/25 09:09:34;;;;;;;3.05;1.60;;;;;;;27.47;44.10;96440.31;5034020;28;20022;-26
2023/06/25 09:12:00;;;;;;;3.97;1.60;;;;;;;27.56;43.89;96431.56;5041266;28;20028;-26
2023/06/25 09:14:26;;;;;;;3.42;1.50;;;;;;;27.45;44.35;96434.53;5033467;28;20474;-26
2023/06/25 09:16:51;;;;;;;5.13;1.60;;;;;;;27.42;44.17;96436.38;5034200;28;20363;-26
2023/06/25 09:19:20;;;;;;;3.90;1.75;;;;;;;27.44;44.01;96447.72;5033077;28;20029;-26
2023/06/25 09:21:46;;;;;;;4.88;1.92;;;;;;;27.47;44.26;96440.31;5033383;28;20029;-26
2023/06/25 09:24:17;;;;;;;3.45;1.63;;;;;;;27.44;44.37;96447.72;5033985;28;20026;-26
2023/06/25 09:26:53;;;;;;;4.20;1.83;;;;;;;27.51;43.86;96441.50;5037806;28;20021;-26
2023/06/25 09:29:21;;;;;;;3.75;1.90;;;;;;;27.58;43.85;96439.34;5040490;28;20119;-26
2023/06/25 09:31:48;;;;;;;2.88;1.80;;;;;;;27.52;43.59;96440.19;5033332;28;20065;-26
2023/06/25 09:34:16;;;;;;;3.08;1.80;;;;;;;27.44;43.84;96433.06;5033711;28;20021;-28
2023/06/25 09:36:41;;;;;;;5.15;2.08;;;;;;;27.59;43.64;96438.81;5033434;28;20076;-26
2023/06/25 09:39:09;;;;;;;3.50;2.05;;;;;;;27.59;43.66;96438.81;5033590;28;20021;-26
2023/06/25 09:41:46;;;;;;;3.97;2.58;;;;;;;27.52;43.79;96448.56;5032959;28;20483;-26
2023/06/25 09:44:11;;;;;;;2.40;1.83;;;;;;;27.70;42.97;96438.56;5033375;28;20103;-26
2023/06/25 09:46:39;;;;;;;4.07;2.20;;;;;;;27.51;43.49;96446.31;5033066;28;20471;-28
2023/06/25 09:49:07;;;;;;;3.72;1.80;;;;;;;27.63;43.42;96441.28;5033430;28;20093;-26
2023/06/25 09:51:55;;;;;;;3.72;1.88;;;;;;;27.59;43.43;96435.28;5033504;28;20029;-26
2023/06/25 09:54:23;;;;;;;2.80;2.00;;;;;;;27.56;43.41;96436.38;5033379;28;20028;-27
2023/06/25 09:56:50;;;;;;;4.75;2.03;;;;;;;27.48;44.01;96439.03;5033020;28;20072;-26
2023/06/25 09:59:16;;;;;;;4.10;2.20;;;;;;;27.61;43.11;96439.03;5032874;28;20028;-26
2023/06/25 10:01:42;;;;;;;3.60;1.75;;;;;;;27.66;42.91;96432.59;5033120;28;20108;-26
2023/06/25 10:04:07;;;;;;;3.22;1.85;;;;;;;27.60;42.85;96431.19;5033513;28;20419;-26
2023/06/25 10:06:35;;;;;;;3.35;2.17;;;;;;;27.59;42.56;96432.47;5032874;28;20531;-26
2023/06/25 10:09:02;;;;;;;3.15;2.00;;;;;;;27.65;42.88;96433.88;5040363;28;20052;-26
2023/06/25 10:11:28;;;;;;;4.40;1.95;;;;;;;27.57;43.00;96435.09;5041934;28;20067;-26
2023/06/25 10:13:53;;;;;;;4.10;1.95;;;;;;;27.66;42.77;96431.84;5032631;28;20487;-26
2023/06/25 10:16:19;;;;;;;3.08;1.95;;;;;;;27.61;43.11;96435.47;5033592;28;20014;-26
2023/06/25 10:18:46;;;;;;;3.70;1.80;;;;;;;27.64;42.68;96435.16;5033384;28;20037;-26
2023/06/25 10:21:20;;;;;;;3.88;1.85;;;;;;;27.75;42.54;96436.94;5040015;28;20433;-26
2023/06/25 10:24:03;;;;;;;3.05;1.92;;;;;;;27.67;42.06;96431.31;5032934;28;20382;-27
2023/06/25 10:26:35;;;;;;;4.60;2.08;;;;;;;27.59;42.27;96435.28;5033194;28;20108;-26
2023/06/25 10:29:06;;;;;;;2.85;1.83;;;;;;;27.79;42.14;96431.78;5032644;28;20029;-26
2023/06/25 10:31:42;;;;;;;4.00;1.85;;;;;;;27.63;42.23;96442.03;5034761;28;20045;-26
2023/06/25 10:34:09;;;;;;;3.65;2.08;;;;;;;27.64;42.33;96431.63;5040649;28;20036;-28
2023/06/25 10:36:34;;;;;;;4.00;2.00;;;;;;;27.63;41.92;96430.13;5032683;28;20120;-27
2023/06/25 10:39:00;;;;;;;4.63;2.33;;;;;;;27.77;41.86;96440.69;5032859;28;20057;-27
2023/06/25 10:41:30;;;;;;;5.07;1.98;;;;;;;27.69;41.52;96439.13;5035924;28;20052;-26
2023/06/25 10:43:57;;;;;;;3.78;2.28;;;;;;;27.64;41.49;96432.38;5036553;28;20021;-28
2023/06/25 10:46:30;;;;;;;3.97;1.95;;;;;;;27.73;41.58;96433.94;5036523;28;20025;-26
2023/06/25 10:48:55;;;;;;;3.13;2.00;;;;;;;27.73;41.37;96437.47;5036077;28;20021;-26
2023/06/25 10:51:21;;;;;;;3.72;2.15;;;;;;;27.60;41.37;96425.63;5036345;28;20021;-26
2023/06/25 10:53:47;;;;;;;3.20;1.90;;;;;;;27.69;41.54;96434.28;5035913;28;20017;-26
2023/06/25 10:56:12;;;;;;;2.95;1.80;;;;;;;27.73;41.11;96431.91;5036343;28;20048;-27
2023/06/25 10:58:41;;;;;;;2.30;1.77;;;;;;;27.85;41.35;96435.19;5036084;28;20060;-26
2023/06/25 11:01:07;;;;;;;2.90;2.08;;;;;;;27.80;40.93;96434.03;5038524;28;20109;-27
2023/06/25 11:03:35;;;;;;;3.78;1.85;;;;;;;27.83;41.15;96437.75;5036154;28;20389;-26
2023/06/25 11:06:01;;;;;;;3.42;1.85;;;;;;;27.85;41.32;96435.19;5035619;28;20045;-27
2023/06/25 11:08:26;;;;;;;5.78;2.10;;;;;;;27.78;41.15;96435.88;5036016;28;20352;-26
2023/06/25 11:10:52;;;;;;;4.18;1.80;;;;;;;27.80;40.73;96433.28;5035789;28;20033;-26
2023/06/25 11:13:17;;;;;;;5.07;2.20;;;;;;;27.80;40.59;96433.28;5035768;28;20022;-26
2023/06/25 11:15:44;;;;;;;4.03;1.88;;;;;;;27.83;40.76;96424.56;5036231;28;20074;-26
2023/06/25 11:18:10;;;;;;;3.83;1.90;;;;;;;27.76;41.01;96436.41;5035604;28;20017;-27
2023/06/25 11:20:38;;;;;;;2.95;2.00;;;;;;;27.76;41.16;96438.44;5048732;28;20546;-26
2023/06/25 11:23:04;;;;;;;2.70;2.00;;;;;;;27.85;41.20;96426.81;5035567;28;20163;-26
2023/06/25 11:25:30;;;;;;;4.18;2.17;;;;;;;27.85;41.13;96433.16;5035863;28;20503;-26
2023/06/25 11:28:04;;;;;;;4.32;2.20;;;;;;;27.86;41.57;96442.25;5035504;28;20056;-26
2023/06/25 11:30:30;;;;;;;5.03;2.20;;;;;;;27.87;41.56;96433.34;5040558;28;20017;-26